West Lafayette, Ohio
Current Conditions -  °F | °C
As of 12:53 PM on Monday 20 Oct 2014 (Local Time) from KPHD Reporting Station
Overcast Overcast  
Wind Chill: 13°   Ceiling: 10000
Heat Index: 13°   Visibility: 10mi
Dew Point:   Wind: 7mph
Humidity: 64%   Direction: NA
Pressure: 29.93"   Gusts: NA
Location:  40.28°N, 81.75°W
Report Text: KPHD 201653Z AUTO VRB06KT 10SM OVC100 13/06 A2993 RMK AO2 SLP136 T01280061
Loading
Personal Weather Stations






























Interactive Weather Map
Tropical Storm Tracking
New forecast layout! Learn more

10-Day Weather Forecast

Advertisements
Track Severe Weather on mobile